createdAt,value
2018-06-30T00:01:34.626Z,19.81
2018-06-30T00:04:05.300Z,19.73
2018-06-30T00:06:36.051Z,19.73
2018-06-30T00:09:09.537Z,19.68
2018-06-30T00:11:40.307Z,19.66
2018-06-30T00:14:10.997Z,19.67
2018-06-30T00:16:41.685Z,19.62
2018-06-30T00:19:12.376Z,19.60
2018-06-30T00:21:43.064Z,19.58
2018-06-30T00:24:13.803Z,19.56
2018-06-30T00:26:44.517Z,19.52
2018-06-30T00:29:15.239Z,19.47
2018-06-30T00:31:45.926Z,19.45
2018-06-30T00:34:16.620Z,19.42
2018-06-30T00:36:47.341Z,19.36
2018-06-30T00:39:18.050Z,19.32
2018-06-30T00:41:48.703Z,19.30
2018-06-30T00:44:19.696Z,19.26
2018-06-30T00:46:50.402Z,19.19
2018-06-30T00:49:21.248Z,19.18
2018-06-30T00:51:51.936Z,19.16
2018-06-30T00:54:22.633Z,19.13
2018-06-30T00:56:53.316Z,19.14
2018-06-30T00:59:24.019Z,19.14
2018-06-30T01:01:54.692Z,19.11
2018-06-30T01:04:25.369Z,19.10
2018-06-30T01:06:56.131Z,19.00
2018-06-30T01:09:27.163Z,18.95
2018-06-30T01:11:57.841Z,18.91
2018-06-30T01:14:28.728Z,18.88
2018-06-30T01:16:59.447Z,18.86
2018-06-30T01:19:30.096Z,18.85
2018-06-30T01:22:00.830Z,18.82
2018-06-30T01:24:31.500Z,18.80
2018-06-30T01:27:02.195Z,18.80
2018-06-30T01:29:32.875Z,18.76
2018-06-30T01:32:03.624Z,18.72
2018-06-30T01:34:34.343Z,18.71
2018-06-30T01:37:04.755Z,18.69
2018-06-30T01:39:35.304Z,18.66
2018-06-30T01:42:06.013Z,18.65
2018-06-30T01:44:36.673Z,18.63
2018-06-30T01:47:07.368Z,18.63
2018-06-30T01:49:38.314Z,18.59
2018-06-30T01:52:08.974Z,18.57
2018-06-30T01:54:39.690Z,18.54
2018-06-30T01:57:10.405Z,18.51
2018-06-30T01:59:41.081Z,18.45
2018-06-30T02:02:11.743Z,18.41
2018-06-30T02:04:42.432Z,18.38
2018-06-30T02:07:13.197Z,18.34
2018-06-30T02:09:43.860Z,18.28
2018-06-30T02:12:14.568Z,18.25
2018-06-30T02:14:45.249Z,18.22
2018-06-30T02:17:15.926Z,18.18
2018-06-30T02:19:46.608Z,18.10
2018-06-30T02:22:17.308Z,18.02
2018-06-30T02:24:47.988Z,17.96
2018-06-30T02:27:18.790Z,17.92
2018-06-30T02:33:23.367Z,17.86
2018-06-30T02:35:54.029Z,17.86
2018-06-30T02:38:24.750Z,17.82
2018-06-30T02:40:55.429Z,17.78
2018-06-30T02:43:26.088Z,17.71
2018-06-30T02:45:56.834Z,17.71
2018-06-30T02:48:27.416Z,17.68
2018-06-30T02:50:58.105Z,17.67
2018-06-30T02:53:28.877Z,17.66
2018-06-30T02:55:59.591Z,17.62
2018-06-30T02:58:30.304Z,17.57
2018-06-30T03:01:01.027Z,17.60
2018-06-30T03:03:31.775Z,17.59
2018-06-30T03:06:02.469Z,17.59
2018-06-30T03:08:33.160Z,17.59
2018-06-30T03:11:03.819Z,17.59
2018-06-30T03:13:34.497Z,17.53
2018-06-30T03:18:50.139Z,17.53
2018-06-30T03:21:20.825Z,17.47
2018-06-30T03:23:51.535Z,17.46
2018-06-30T03:26:22.217Z,17.43
2018-06-30T03:28:52.975Z,17.40
2018-06-30T03:31:23.739Z,17.36
2018-06-30T03:33:54.490Z,17.36
2018-06-30T03:36:25.190Z,17.34
2018-06-30T03:38:55.897Z,17.33
2018-06-30T03:41:26.602Z,17.33
2018-06-30T03:43:57.319Z,17.34
2018-06-30T03:46:27.987Z,17.34
2018-06-30T03:48:58.675Z,17.34
2018-06-30T03:51:29.359Z,17.35
2018-06-30T03:54:00.049Z,17.34
2018-06-30T03:56:30.717Z,17.35
2018-06-30T03:59:01.503Z,17.39
2018-06-30T04:01:32.203Z,17.41
2018-06-30T04:04:02.954Z,17.42
2018-06-30T04:06:33.680Z,17.42
2018-06-30T04:09:06.234Z,17.44
2018-06-30T04:11:36.947Z,17.42
2018-06-30T04:14:07.842Z,17.43
2018-06-30T04:16:38.563Z,17.48
2018-06-30T04:19:16.563Z,17.52
2018-06-30T04:21:48.013Z,17.50
2018-06-30T04:24:18.764Z,17.57
2018-06-30T04:26:49.449Z,17.57
2018-06-30T04:29:20.197Z,17.60
2018-06-30T04:31:50.894Z,17.62
2018-06-30T04:34:21.611Z,17.62
2018-06-30T04:36:52.337Z,17.68
2018-06-30T04:39:23.103Z,17.66
2018-06-30T04:41:53.803Z,17.69
2018-06-30T04:44:24.502Z,17.70
2018-06-30T04:46:55.213Z,17.73
2018-06-30T04:49:25.899Z,17.83
2018-06-30T04:51:56.576Z,17.86
2018-06-30T04:54:27.276Z,17.92
2018-06-30T04:56:57.675Z,17.92
2018-06-30T04:59:28.272Z,18.01
2018-06-30T05:01:58.920Z,18.06
2018-06-30T05:04:29.604Z,18.06
2018-06-30T05:07:00.347Z,18.12
2018-06-30T05:09:31.060Z,18.17
2018-06-30T05:12:01.761Z,18.24
2018-06-30T05:14:32.433Z,18.28
2018-06-30T05:17:03.127Z,18.32
2018-06-30T05:19:33.812Z,18.33
2018-06-30T05:22:04.535Z,18.37
2018-06-30T05:24:35.255Z,18.46
2018-06-30T05:27:06.551Z,18.53
2018-06-30T05:29:37.293Z,18.56
2018-06-30T05:32:08.013Z,18.57
2018-06-30T05:34:38.763Z,18.71
2018-06-30T05:37:09.437Z,18.68
2018-06-30T05:39:40.187Z,18.74
2018-06-30T05:42:10.907Z,18.81
2018-06-30T05:44:41.647Z,18.94
2018-06-30T05:47:12.335Z,19.03
2018-06-30T05:49:43.073Z,19.14
2018-06-30T05:52:13.870Z,19.26
2018-06-30T05:54:44.622Z,19.33
2018-06-30T05:57:15.350Z,19.38
2018-06-30T05:59:46.100Z,19.39
2018-06-30T06:02:16.897Z,19.50
2018-06-30T06:04:47.592Z,19.53
2018-06-30T06:07:18.355Z,19.49
2018-06-30T06:09:49.962Z,19.55
2018-06-30T06:12:20.692Z,19.59
2018-06-30T06:14:51.440Z,19.69
2018-06-30T06:17:21.806Z,19.91
2018-06-30T06:19:52.428Z,19.98
2018-06-30T06:22:23.149Z,20.10
2018-06-30T06:24:53.844Z,20.23
2018-06-30T06:27:24.625Z,20.33
2018-06-30T06:29:55.259Z,20.48
2018-06-30T06:32:26.004Z,20.48
2018-06-30T06:34:56.703Z,20.57
2018-06-30T06:37:27.538Z,20.60
2018-06-30T06:39:58.196Z,20.70
2018-06-30T06:42:28.917Z,20.83
2018-06-30T06:44:59.618Z,20.94
2018-06-30T06:47:30.354Z,21.04
2018-06-30T06:50:01.027Z,21.14
2018-06-30T06:52:31.761Z,21.20
2018-06-30T06:55:02.487Z,21.37
2018-06-30T06:57:33.255Z,21.49
2018-06-30T07:00:04.012Z,21.63
2018-06-30T07:02:34.715Z,21.81
2018-06-30T07:05:05.737Z,22.00
2018-06-30T07:07:36.524Z,22.05
2018-06-30T07:10:07.459Z,22.24
2018-06-30T07:12:38.221Z,22.39
2018-06-30T07:15:09.186Z,22.46
2018-06-30T07:17:39.986Z,22.52
2018-06-30T07:20:41.812Z,22.61
2018-06-30T07:23:12.485Z,22.70
2018-06-30T07:25:43.204Z,22.77
2018-06-30T07:28:13.938Z,22.88
2018-06-30T07:30:44.648Z,23.07
2018-06-30T07:33:15.496Z,23.19
2018-06-30T07:35:46.200Z,23.42
2018-06-30T07:38:16.908Z,23.54
2018-06-30T07:40:47.658Z,23.74
2018-06-30T07:43:18.448Z,23.81
2018-06-30T07:45:49.121Z,23.90
2018-06-30T07:48:19.800Z,24.04
2018-06-30T07:50:50.525Z,24.14
2018-06-30T07:53:21.267Z,24.14
2018-06-30T07:55:51.955Z,24.24
2018-06-30T07:58:22.688Z,24.49
2018-06-30T08:00:53.429Z,24.66
2018-06-30T08:03:24.142Z,24.84
2018-06-30T08:05:54.837Z,25.01
2018-06-30T08:08:25.516Z,25.21
2018-06-30T08:10:56.221Z,25.11
2018-06-30T08:13:26.980Z,25.28
2018-06-30T08:15:57.685Z,25.41
2018-06-30T08:18:28.412Z,25.52
2018-06-30T08:20:59.154Z,25.78
2018-06-30T08:23:29.920Z,25.98
2018-06-30T08:26:00.674Z,26.03
2018-06-30T08:28:31.348Z,26.30
2018-06-30T08:31:02.080Z,26.44
2018-06-30T08:33:32.856Z,26.50
2018-06-30T08:36:03.571Z,26.36
2018-06-30T08:38:34.316Z,26.21
2018-06-30T08:41:05.024Z,26.15
2018-06-30T08:43:35.755Z,26.35
2018-06-30T08:46:07.031Z,26.53
2018-06-30T08:48:37.376Z,26.82
2018-06-30T08:51:08.028Z,26.96
2018-06-30T08:53:38.676Z,27.14
2018-06-30T08:56:09.386Z,27.20
2018-06-30T08:58:40.523Z,27.35
2018-06-30T09:01:11.224Z,27.39
2018-06-30T09:03:41.995Z,27.65
2018-06-30T09:06:12.656Z,27.94
2018-06-30T09:08:43.413Z,28.03
2018-06-30T09:11:14.183Z,28.09
2018-06-30T09:13:44.902Z,28.29
2018-06-30T09:16:15.787Z,28.28
2018-06-30T09:18:46.536Z,28.25
2018-06-30T09:21:17.311Z,28.60
2018-06-30T09:23:48.004Z,28.79
2018-06-30T09:26:18.712Z,28.75
2018-06-30T09:28:49.420Z,28.85
2018-06-30T09:31:20.201Z,29.11
2018-06-30T09:33:50.880Z,29.21
2018-06-30T09:36:21.627Z,29.20
2018-06-30T09:38:52.288Z,29.25
2018-06-30T09:41:23.024Z,29.34
2018-06-30T09:43:53.735Z,29.18
2018-06-30T09:46:24.563Z,29.24
2018-06-30T09:48:55.284Z,29.42
2018-06-30T09:51:26.029Z,29.75
2018-06-30T09:53:56.713Z,29.96
2018-06-30T09:56:27.417Z,29.90
2018-06-30T09:58:58.107Z,29.76
2018-06-30T10:01:28.819Z,29.82
2018-06-30T10:03:59.519Z,29.99
2018-06-30T10:06:30.256Z,30.18
2018-06-30T10:09:00.988Z,30.20
2018-06-30T10:11:31.727Z,29.66
2018-06-30T10:14:02.423Z,29.73
2018-06-30T10:16:33.139Z,29.77
2018-06-30T10:19:03.956Z,29.86
2018-06-30T10:21:34.660Z,30.30
2018-06-30T10:24:05.455Z,30.43
2018-06-30T10:26:36.169Z,30.70
2018-06-30T10:29:06.888Z,30.93
2018-06-30T10:31:37.585Z,30.92
2018-06-30T10:34:08.249Z,30.92
2018-06-30T10:36:38.948Z,31.01
2018-06-30T10:39:11.976Z,31.00
2018-06-30T10:41:42.824Z,30.82
2018-06-30T10:44:13.529Z,30.96
2018-06-30T10:46:44.280Z,31.10
2018-06-30T10:49:15.033Z,31.23
2018-06-30T10:51:45.738Z,31.17
2018-06-30T10:54:16.506Z,30.85
2018-06-30T10:56:47.231Z,30.82
2018-06-30T10:59:17.909Z,30.59
2018-06-30T11:01:48.592Z,30.67
2018-06-30T11:04:19.289Z,30.88
2018-06-30T11:06:49.967Z,30.42
2018-06-30T11:09:20.663Z,30.77
2018-06-30T11:11:51.352Z,30.90
2018-06-30T11:14:22.053Z,31.18
2018-06-30T11:16:52.739Z,31.21
2018-06-30T11:19:23.415Z,31.53
2018-06-30T11:21:54.443Z,31.52
2018-06-30T11:24:25.171Z,31.61
2018-06-30T11:26:55.939Z,31.71
2018-06-30T11:29:27.032Z,31.79
2018-06-30T11:31:57.714Z,31.76
2018-06-30T11:34:28.444Z,31.82
2018-06-30T11:36:59.133Z,31.74
2018-06-30T11:39:29.866Z,31.48
2018-06-30T11:42:00.628Z,31.06
2018-06-30T11:44:31.341Z,30.99
2018-06-30T11:47:02.083Z,31.10
2018-06-30T11:49:32.829Z,31.42
2018-06-30T11:52:03.663Z,31.56
2018-06-30T11:54:34.376Z,31.61
2018-06-30T11:57:05.177Z,31.55
2018-06-30T11:59:35.884Z,31.88
2018-06-30T12:02:06.938Z,31.80
2018-06-30T12:05:40.669Z,31.95
2018-06-30T12:08:11.424Z,32.03
2018-06-30T12:10:42.133Z,31.88
2018-06-30T12:13:12.970Z,31.86
2018-06-30T12:15:43.707Z,32.07
2018-06-30T12:18:14.381Z,32.20
2018-06-30T12:20:45.347Z,32.28
2018-06-30T12:23:16.019Z,32.47
2018-06-30T12:25:46.707Z,32.23
2018-06-30T12:28:17.388Z,32.26
2018-06-30T12:30:48.056Z,32.67
2018-06-30T12:33:18.738Z,33.06
2018-06-30T12:35:49.520Z,32.82
2018-06-30T12:38:19.879Z,32.66
2018-06-30T12:40:50.491Z,32.84
2018-06-30T12:43:21.193Z,32.94
2018-06-30T12:45:51.977Z,32.98
2018-06-30T12:48:22.645Z,32.85
2018-06-30T12:50:53.333Z,32.99
2018-06-30T12:53:24.057Z,32.72
2018-06-30T12:55:54.761Z,32.99
2018-06-30T12:58:25.468Z,32.90
2018-06-30T13:00:56.318Z,32.45
2018-06-30T13:03:27.205Z,32.29
2018-06-30T13:05:57.898Z,32.49
2018-06-30T13:08:28.626Z,32.76
2018-06-30T13:10:59.321Z,32.67
2018-06-30T13:13:30.036Z,32.70
2018-06-30T13:16:00.751Z,32.62
2018-06-30T13:18:31.432Z,32.77
2018-06-30T13:21:02.090Z,32.87
2018-06-30T13:23:32.801Z,32.85
2018-06-30T13:26:03.525Z,32.87
2018-06-30T13:28:34.212Z,33.04
2018-06-30T13:31:05.057Z,33.14
2018-06-30T13:33:35.717Z,33.04
2018-06-30T13:36:06.501Z,33.06
2018-06-30T13:38:37.256Z,33.26
2018-06-30T13:41:08.281Z,33.37
2018-06-30T13:43:39.110Z,33.28
2018-06-30T13:46:09.893Z,33.30
2018-06-30T13:48:40.681Z,33.14
2018-06-30T13:51:11.473Z,33.21
2018-06-30T13:53:42.220Z,33.23
2018-06-30T13:56:12.964Z,33.25
2018-06-30T13:58:43.656Z,33.32
2018-06-30T14:01:14.398Z,33.27
2018-06-30T14:03:45.079Z,33.17
2018-06-30T14:06:15.822Z,32.98
2018-06-30T14:08:46.598Z,32.94
2018-06-30T14:11:17.328Z,32.68
2018-06-30T14:13:47.993Z,32.70
2018-06-30T14:16:18.703Z,32.99
2018-06-30T14:18:49.464Z,32.94
2018-06-30T14:21:20.174Z,32.70
2018-06-30T14:23:50.861Z,32.34
2018-06-30T14:26:21.603Z,32.52
2018-06-30T14:28:52.532Z,32.68
2018-06-30T14:31:23.268Z,32.80
2018-06-30T14:33:54.000Z,32.70
2018-06-30T14:36:24.763Z,32.70
2018-06-30T14:38:55.473Z,32.65
2018-06-30T14:41:26.197Z,32.38
2018-06-30T14:43:56.882Z,32.54
2018-06-30T14:46:27.557Z,32.69
2018-06-30T14:48:58.308Z,32.45
2018-06-30T14:51:29.048Z,32.27
2018-06-30T14:57:01.221Z,31.96
2018-06-30T14:59:31.977Z,31.87
2018-06-30T15:02:02.740Z,31.81
2018-06-30T15:04:36.297Z,31.74
2018-06-30T15:07:07.132Z,31.84
2018-06-30T15:09:37.593Z,31.70
2018-06-30T15:12:08.314Z,31.69
2018-06-30T15:14:39.109Z,31.66
2018-06-30T15:17:09.852Z,31.71
2018-06-30T15:19:40.598Z,31.61
2018-06-30T15:22:11.324Z,31.38
2018-06-30T15:24:42.079Z,31.02
2018-06-30T15:27:12.760Z,30.96
2018-06-30T15:29:43.465Z,30.96
2018-06-30T15:32:14.189Z,30.86
2018-06-30T15:34:44.874Z,30.88
2018-06-30T15:37:15.572Z,30.95
2018-06-30T15:39:46.391Z,31.03
2018-06-30T15:42:17.081Z,31.00
2018-06-30T15:44:47.780Z,30.83
2018-06-30T15:47:18.588Z,30.68
2018-06-30T15:49:49.256Z,30.73
2018-06-30T15:52:19.986Z,30.82
2018-06-30T15:54:50.921Z,30.95
2018-06-30T15:57:21.616Z,30.77
2018-06-30T15:59:58.582Z,30.69
2018-06-30T16:02:29.237Z,30.54
2018-06-30T16:04:59.947Z,30.20
2018-06-30T16:07:30.677Z,29.97
2018-06-30T16:10:01.566Z,29.81
2018-06-30T16:12:32.160Z,29.60
2018-06-30T16:15:02.843Z,29.53
2018-06-30T16:17:33.503Z,29.56
2018-06-30T16:20:04.256Z,29.56
2018-06-30T16:22:34.992Z,29.60
2018-06-30T16:25:06.072Z,29.38
2018-06-30T16:27:36.783Z,29.21
2018-06-30T16:30:08.984Z,28.99
2018-06-30T16:32:39.737Z,28.85
2018-06-30T16:35:10.452Z,28.75
2018-06-30T16:37:41.205Z,28.63
2018-06-30T16:40:11.939Z,28.67
2018-06-30T16:42:42.681Z,28.62
2018-06-30T16:45:13.428Z,28.68
2018-06-30T16:47:44.107Z,28.53
2018-06-30T16:50:14.787Z,28.53
2018-06-30T16:52:45.471Z,28.41
2018-06-30T16:55:16.181Z,28.35
2018-06-30T16:57:46.849Z,28.24
2018-06-30T17:00:17.595Z,28.19
2018-06-30T17:02:48.259Z,28.10
2018-06-30T17:05:18.943Z,27.93
2018-06-30T17:07:49.650Z,27.93
2018-06-30T17:10:20.352Z,27.91
2018-06-30T17:12:51.031Z,27.86
2018-06-30T17:15:21.783Z,27.73
2018-06-30T17:17:52.463Z,27.63
2018-06-30T17:20:23.145Z,27.59
2018-06-30T17:22:53.929Z,27.46
2018-06-30T17:25:24.681Z,27.40
2018-06-30T17:27:55.435Z,27.43
2018-06-30T17:30:26.160Z,27.41
2018-06-30T17:32:56.840Z,27.41
2018-06-30T17:35:27.221Z,27.32
2018-06-30T17:37:58.188Z,27.21
2018-06-30T17:40:28.926Z,27.07
2018-06-30T17:42:59.686Z,27.00
2018-06-30T17:45:30.669Z,26.95
2018-06-30T17:48:01.405Z,26.92
2018-06-30T17:50:32.126Z,26.89
2018-06-30T17:53:02.860Z,26.85
2018-06-30T17:55:33.681Z,26.77
2018-06-30T17:58:04.446Z,26.71
2018-06-30T18:00:35.199Z,26.52
2018-06-30T18:03:06.108Z,26.55
2018-06-30T18:05:36.797Z,26.47
2018-06-30T18:08:07.580Z,26.46
2018-06-30T18:10:38.331Z,26.31
2018-06-30T18:13:09.288Z,26.26
2018-06-30T18:15:40.018Z,26.21
2018-06-30T18:18:10.716Z,26.21
2018-06-30T18:20:41.479Z,26.07
2018-06-30T18:23:12.139Z,26.00
2018-06-30T18:25:42.863Z,25.98
2018-06-30T18:28:13.577Z,25.94
2018-06-30T18:30:44.343Z,25.92
2018-06-30T18:33:15.033Z,25.83
2018-06-30T18:35:45.761Z,25.75
2018-06-30T18:38:16.429Z,25.74
2018-06-30T18:40:47.124Z,25.64
2018-06-30T18:43:17.789Z,25.56
2018-06-30T18:45:48.520Z,25.50
2018-06-30T18:48:19.495Z,25.47
2018-06-30T18:50:50.219Z,25.36
2018-06-30T18:53:20.934Z,25.32
2018-06-30T18:55:51.640Z,25.22
2018-06-30T18:58:22.501Z,25.10
2018-06-30T19:00:53.217Z,25.02
2018-06-30T19:03:24.038Z,25.02
2018-06-30T19:05:54.747Z,24.80
2018-06-30T19:08:25.460Z,24.75
2018-06-30T19:10:56.195Z,24.71
2018-06-30T19:13:27.001Z,24.64
2018-06-30T19:15:57.753Z,24.57
2018-06-30T19:18:28.579Z,24.56
2018-06-30T19:20:59.262Z,24.48
2018-06-30T19:23:29.959Z,24.33
2018-06-30T19:26:00.651Z,24.22
2018-06-30T19:28:31.393Z,24.14
2018-06-30T19:31:02.055Z,24.10
2018-06-30T19:33:32.776Z,24.01
2018-06-30T19:36:03.485Z,23.96
2018-06-30T19:38:34.252Z,23.87
2018-06-30T19:41:05.038Z,23.79
2018-06-30T19:43:35.755Z,23.71
2018-06-30T19:46:06.412Z,23.63
2018-06-30T19:48:37.134Z,23.50
2018-06-30T19:51:07.875Z,23.49
2018-06-30T19:53:38.567Z,23.36
2018-06-30T19:56:09.314Z,23.34
2018-06-30T19:58:40.049Z,23.22
2018-06-30T20:01:10.736Z,23.16
2018-06-30T20:03:41.477Z,23.05
2018-06-30T20:06:12.164Z,23.02
2018-06-30T20:08:42.896Z,22.95
2018-06-30T20:11:13.608Z,22.88
2018-06-30T20:13:44.368Z,22.77
2018-06-30T20:16:15.096Z,22.69
2018-06-30T20:18:45.794Z,22.61
2018-06-30T20:21:16.457Z,22.51
2018-06-30T20:23:47.121Z,22.46
2018-06-30T20:26:17.796Z,22.46
2018-06-30T20:28:48.548Z,22.41
2018-06-30T20:31:19.293Z,22.27
2018-06-30T20:33:50.072Z,22.22
2018-06-30T20:36:20.752Z,22.21
2018-06-30T20:38:51.864Z,22.14
2018-06-30T20:41:22.543Z,22.07
2018-06-30T20:43:53.263Z,21.93
2018-06-30T20:46:23.939Z,21.88
2018-06-30T20:48:54.658Z,21.77
2018-06-30T20:51:25.374Z,21.67
2018-06-30T20:53:56.092Z,21.61
2018-06-30T20:56:26.993Z,21.55
2018-06-30T20:58:57.665Z,21.51
2018-06-30T21:01:28.410Z,21.48
2018-06-30T21:03:59.244Z,21.43
2018-06-30T21:06:30.001Z,21.38
2018-06-30T21:09:00.699Z,21.31
2018-06-30T21:11:31.374Z,21.29
2018-06-30T21:14:02.134Z,21.19
2018-06-30T21:16:32.923Z,21.04
2018-06-30T21:19:03.703Z,20.97
2018-06-30T21:21:34.405Z,20.93
2018-06-30T21:24:05.241Z,20.99
2018-06-30T21:26:35.928Z,20.92
2018-06-30T21:29:06.714Z,20.84
2018-06-30T21:31:37.458Z,20.84
2018-06-30T21:34:08.249Z,20.78
2018-06-30T21:36:39.075Z,20.60
2018-06-30T21:39:12.591Z,20.58
2018-06-30T21:41:43.248Z,20.60
2018-06-30T21:44:13.966Z,20.47
2018-06-30T21:46:44.627Z,20.41
2018-06-30T21:49:15.360Z,20.36
2018-06-30T21:51:46.094Z,20.27
2018-06-30T21:54:16.849Z,20.19
2018-06-30T21:56:47.611Z,20.16
2018-06-30T21:59:18.324Z,20.06
2018-06-30T22:01:49.082Z,20.01
2018-06-30T22:04:19.744Z,19.98
2018-06-30T22:06:50.463Z,19.99
2018-06-30T22:09:21.256Z,19.91
2018-06-30T22:11:52.069Z,19.88
2018-06-30T22:14:22.815Z,19.80
2018-06-30T22:16:53.525Z,19.69
2018-06-30T22:19:24.284Z,19.69
2018-06-30T22:21:55.048Z,19.62
2018-06-30T22:24:25.747Z,19.57
2018-06-30T22:26:56.514Z,19.56
2018-06-30T22:29:27.190Z,19.50
2018-06-30T22:31:57.923Z,19.45
2018-06-30T22:34:28.657Z,19.44
2018-06-30T22:36:59.367Z,19.34
2018-06-30T22:39:46.797Z,19.29
2018-06-30T22:42:17.452Z,19.21
2018-06-30T22:44:48.151Z,19.20
2018-06-30T22:47:18.851Z,19.08
2018-06-30T22:49:49.544Z,19.03
2018-06-30T22:52:20.272Z,19.01
2018-06-30T22:54:50.949Z,18.99
2018-06-30T22:57:21.609Z,18.93
2018-06-30T22:59:52.332Z,18.92
2018-06-30T23:02:23.122Z,18.85
2018-06-30T23:04:53.910Z,18.77
2018-06-30T23:07:24.598Z,18.72
2018-06-30T23:09:55.421Z,18.68
2018-06-30T23:12:26.148Z,18.61
2018-06-30T23:14:57.479Z,18.58
2018-06-30T23:17:28.223Z,18.55
2018-06-30T23:19:58.904Z,18.59
2018-06-30T23:23:12.253Z,18.52
2018-06-30T23:25:42.939Z,18.41
2018-06-30T23:28:13.673Z,18.36
2018-06-30T23:30:44.335Z,18.30
2018-06-30T23:33:15.071Z,18.24
2018-06-30T23:35:45.823Z,18.13
2018-06-30T23:38:16.549Z,18.14
2018-06-30T23:40:47.208Z,18.08
2018-06-30T23:43:17.931Z,18.02
2018-06-30T23:45:48.693Z,17.95
2018-06-30T23:48:19.413Z,17.90
2018-06-30T23:50:50.098Z,17.87
2018-06-30T23:53:20.807Z,17.78
2018-06-30T23:55:51.515Z,17.70
2018-06-30T23:58:22.218Z,17.68
